Yardley, Pennsylvania
Current Conditions -  °F | °C
As of 9:20 AM on Monday 26 Jan 2015 (Local Time) from KTTN Reporting Station
Light Snow Light Snow  
Wind Chill: 12°   Ceiling: 1400
Heat Index: 23°   Visibility: 0.75mi
Dew Point: 18°   Wind: 10mph
Humidity: 81%   Direction: 50°NE
Pressure: 29.93"   Gusts: NA
Location:  40.1994°N, 74.8145°W
Report Text: KTTN 261420Z 05009KT 3/4SM -SN BKN014 BKN030 OVC037 M05/M08 A2993 RMK AO2 P0000 T10501078
Loading
Personal Weather Stations






























Interactive Weather Map New forecast layout! Learn more

10-Day Weather Forecast

Advertisements
Track Severe Weather on mobile